Flight Track Log - Related Links

Times and Time Zones

All times are in EDT time to prevent confusion due to time zone crossing. See the TAM3273 flight status page for this flight to view local times or setup timezone preferences in your user account.

Time Position Orientation Groundspeed Altitude Reporting Facility
EDT Latitude Longitude Course Direction KTS MPH feet Rate Location/Type
Sun 07:54:00 AM -20.1415 -47.8191 163° South  Level Estimated
Sun 07:55:00 AM -20.2382 -47.7875 163° South  Level Estimated
Sun 07:56:00 AM -20.3350 -47.7560 163° South  Level Estimated
Sun 07:57:00 AM -20.4318 -47.7243 163° South  Level Estimated
Sun 07:58:00 AM -20.5285 -47.6927 163° South  Level Estimated
Sun 07:59:00 AM -20.6253 -47.6610 163° South  Level Estimated
Sun 08:00:00 AM -20.7220 -47.6292 163° South  Level Estimated
Sun 08:01:00 AM -20.8188 -47.5975 163° South  Level Estimated
Sun 08:02:00 AM -20.9155 -47.5656 163° South  Level Estimated
Sun 08:03:00 AM -21.0123 -47.5338 163° South  Level Estimated
Sun 08:04:00 AM -21.1090 -47.5019 163° South  Level Estimated
Sun 08:05:00 AM -21.2057 -47.4699 163° South  Level Estimated
Sun 08:06:00 AM -21.3024 -47.4380 163° South  Level Estimated
Sun 08:07:00 AM -21.3991 -47.4059 163° South  Level Estimated
Sun 08:08:00 AM -21.4958 -47.3739 163° South  Level Estimated
Sun 08:09:00 AM -21.5925 -47.3417 163° South  Level Estimated
Sun 08:10:00 AM -21.6892 -47.3096 163° South  Level Estimated
Sun 08:11:00 AM -21.7859 -47.2774 163° South  Level Estimated
Sun 08:12:00 AM -21.8826 -47.2452 163° South  Level Estimated
Sun 08:13:00 AM -21.9792 -47.2129 163° South  Level Estimated
Sun 08:14:00 AM -22.0759 -47.1805 163° South  Level Estimated
Sun 08:15:00 AM -22.1726 -47.1482 163° South  Level Estimated
Sun 08:16:00 AM -22.2692 -47.1157 163° South  Level Estimated
Sun 08:17:00 AM -22.3659 -47.0833 163° South  Level Estimated
Sun 08:18:00 AM -22.4625 -47.0508 163° South  Level Estimated
Sun 08:19:00 AM -22.5592 -47.0182 163° South  Level Estimated
Sun 08:20:00 AM -22.6558 -46.9856 163° South  Level Estimated
Sun 08:21:00 AM -22.7524 -46.9530 163° South  Level Estimated
Sun 08:22:00 AM -22.8490 -46.9203 163° South  Level Estimated
Sun 08:23:00 AM -22.9456 -46.8876 163° South  Level Estimated
Sun 08:24:00 AM -23.0422 -46.8548 163° South  Level Estimated
Sun 08:25:00 AM -23.1388 -46.8220 163° South  Level Estimated
Sun 08:26:00 AM -23.2354 -46.7891 163° South  Level Estimated
Sun 08:27:00 AM -23.3320 -46.7562 163° South  Level Estimated
Sun 08:28:00 AM -23.4286 -46.7232 163° South  Level Estimated
Sun 08:29:00 AM -23.5251 -46.6902 163° South  Level Estimated
Sun 08:30:00 AM -23.6217 -46.6571 163° South  Level Estimated
Sun 08:31:00 AM -23.6267 -46.6554 163° South  Level Estimated
Sun 08:32:00 AM -23.6267 -46.6554 114° Southeast  Level Estimated
Sun 08:33:00 AM -23.6267 -46.6554 114° Southeast  Level Estimated
Sun 08:34:00 AM -23.6267 -46.6554 114° Southeast  Level Estimated
Sun 08:35:00 AM -23.6267 -46.6554 114° Southeast  Level Estimated
Sun 08:36:00 AM -23.6267 -46.6554 114° Southeast  Level Estimated
Sun 08:37:00 AM -23.6267 -46.6554 114° Southeast  Level Estimated
Sun 08:38:00 AM -23.6267 -46.6554 114° Southeast  Level Estimated
Sun 08:39:00 AM -23.6267 -46.6554 114° Southeast  Level Estimated
Sun 08:40:00 AM -23.6267 -46.6554 114° Southeast  Level Estimated
Sun 08:41:00 AM -23.6267 -46.6554 114° Southeast  Level Estimated
Sun 08:42:00 AM -23.6267 -46.6554 114° Southeast  Level Estimated
Sun 08:43:00 AM -23.6267 -46.6554 114° Southeast  Level Estimated
Sun 08:44:00 AM -23.6267 -46.6554 114° Southeast  Level Estimated
Sun 08:45:00 AM -23.6267 -46.6554 114° Southeast  Level Estimated
Sun 08:46:00 AM -23.6267 -46.6554 114° Southeast  Level Estimated

Login

Don't have an account? Register now (free) for customized features, flight alerts, and more!